Time;durP1;ratioP1;P1;durP2;ratioP2;P2;SDS_P1;SDS_P2;PMS_P1;PMS_P2;Temp;Humidity;BMP_temperature;BMP_pressure;BME280_temperature;BME280_humidity;BME280_pressure;Samples;Min_cycle;Max_cycle;Signal;HPM_P1;HPM_P2
2022/01/20 00:02:27;;;;;;;35.00;28.50;;;;;;;-0.27;76.05;97674.34;109692;1273;22650;-65
2022/01/20 00:05:30;;;;;;;32.90;25.60;;;;;;;-0.24;76.58;97673.23;109688;1273;22457;-65
2022/01/20 00:28:29;;;;;;;22.90;20.60;;;;;;;0.58;76.55;97635.45;109674;1274;22437;-64
2022/01/20 00:31:09;;;;;;;21.00;18.90;;;;;;;0.60;76.57;97629.48;109682;1274;23597;-65
2022/01/20 00:33:44;;;;;;;20.40;18.20;;;;;;;0.65;76.57;97627.60;109642;1274;22377;-65
2022/01/20 00:39:05;;;;;;;22.00;20.00;;;;;;;0.73;76.34;97631.44;109665;1274;22430;-65
2022/01/20 00:41:33;;;;;;;22.00;19.90;;;;;;;0.74;76.46;97630.77;109664;1274;23686;-63
2022/01/20 00:44:01;;;;;;;21.30;19.10;;;;;;;0.74;76.42;97642.55;109662;1274;22434;-64
2022/01/20 00:46:29;;;;;;;19.40;17.60;;;;;;;0.76;76.57;97639.98;109685;1274;22532;-64
2022/01/20 00:48:57;;;;;;;21.70;19.30;;;;;;;0.80;76.52;97633.35;109564;1274;138197;-64
2022/01/20 00:51:25;;;;;;;21.50;19.40;;;;;;;0.82;76.64;97627.02;109685;1272;22500;-65
2022/01/20 00:53:54;;;;;;;22.40;20.30;;;;;;;0.83;76.56;97639.12;109664;1274;22530;-64
2022/01/20 00:56:22;;;;;;;19.80;18.00;;;;;;;0.83;76.62;97641.57;109675;1274;22583;-64
2022/01/20 00:58:50;;;;;;;21.10;18.90;;;;;;;0.84;76.59;97650.33;109528;1274;22258;-65
2022/01/20 01:01:18;;;;;;;22.80;20.40;;;;;;;0.86;76.69;97621.83;109529;1274;22361;-65
2022/01/20 01:03:46;;;;;;;22.90;20.70;;;;;;;0.86;76.67;97624.11;109674;1274;22469;-64
2022/01/20 01:09:08;;;;;;;21.80;19.50;;;;;;;0.85;76.65;97617.73;109661;1273;23652;-65
2022/01/20 01:11:38;;;;;;;22.10;20.00;;;;;;;0.86;76.74;97610.05;109559;1274;22501;-65
2022/01/20 01:14:07;;;;;;;21.50;19.60;;;;;;;0.89;76.69;97601.72;109603;1274;22431;-64
2022/01/20 01:20:00;;;;;;;22.50;20.60;;;;;;;0.89;76.61;97595.09;109607;1274;22432;-64
2022/01/20 01:24:44;;;;;;;21.20;19.20;;;;;;;0.92;76.82;97589.64;109673;1274;22398;-65
2022/01/20 01:27:14;;;;;;;23.10;21.00;;;;;;;0.94;76.77;97572.38;109679;1273;22467;-64
2022/01/20 01:30:06;;;;;;;21.80;19.60;;;;;;;0.93;76.74;97574.92;109685;1274;22472;-64
2022/01/20 01:35:07;;;;;;;20.70;18.60;;;;;;;0.94;76.87;97564.95;109674;1274;22564;-64
2022/01/20 01:38:35;;;;;;;21.00;19.20;;;;;;;0.97;76.71;97552.34;109684;1274;22466;-64
2022/01/20 01:40:29;;;;;;;20.60;18.80;;;;;;;0.99;76.87;97551.06;109570;1274;22534;-64
2022/01/20 01:42:58;;;;;;;21.90;19.80;;;;;;;0.99;76.88;97546.45;109585;1274;23737;-64
2022/01/20 01:45:30;;;;;;;21.30;19.20;;;;;;;0.98;76.85;97538.80;109521;1274;22491;-64
2022/01/20 01:48:00;;;;;;;18.70;16.80;;;;;;;0.99;77.02;97534.05;109647;1274;22473;-65
2022/01/20 01:50:28;;;;;;;19.80;18.00;;;;;;;1.01;76.92;97530.77;109667;1273;23170;-63
2022/01/20 01:52:58;;;;;;;20.20;18.40;;;;;;;1.03;77.01;97527.35;109580;1273;23226;-64
2022/01/20 01:55:26;;;;;;;21.30;19.30;;;;;;;1.03;77.19;97529.36;109546;1274;23625;-63
2022/01/20 01:57:54;;;;;;;19.40;17.50;;;;;;;1.02;77.22;97518.38;109591;1274;22561;-65
2022/01/20 02:00:24;;;;;;;18.50;16.80;;;;;;;1.03;77.06;97516.42;109507;1273;23156;-63
2022/01/20 02:02:55;;;;;;;19.80;17.90;;;;;;;1.05;77.15;97506.05;109602;1274;22616;-64
2022/01/20 02:06:02;;;;;;;20.30;18.50;;;;;;;1.07;76.93;97502.58;109675;1274;22511;-63
2022/01/20 02:08:45;;;;;;;19.60;17.80;;;;;;;1.07;77.20;97505.92;109602;1274;22519;-64
2022/01/20 02:19:53;;;;;;;17.20;15.50;;;;;;;1.12;76.89;97492.38;109688;1273;22573;-66
2022/01/20 02:22:41;;;;;;;20.90;19.10;;;;;;;1.14;76.57;97482.95;109578;1274;22455;-65
2022/01/20 02:25:32;;;;;;;18.60;16.70;;;;;;;1.15;76.78;97476.23;109530;1274;22562;-65
2022/01/20 02:28:04;;;;;;;18.60;16.70;;;;;;;1.17;76.47;97484.20;107775;1274;4867686;-63
2022/01/20 02:30:39;;;;;;;20.40;18.20;;;;;;;1.26;76.34;97478.05;109494;1274;22429;-65
2022/01/20 02:33:14;;;;;;;17.50;15.70;;;;;;;1.39;75.99;97473.73;109664;1274;22245;-65
2022/01/20 02:35:50;;;;;;;18.20;16.40;;;;;;;1.39;75.94;97463.64;109596;1274;22571;-66
2022/01/20 02:46:43;;;;;;;17.40;15.70;;;;;;;1.41;75.07;97457.77;109545;1274;22482;-64
2022/01/20 02:49:17;;;;;;;18.60;16.60;;;;;;;1.40;75.07;97464.45;109603;1274;22542;-64
2022/01/20 02:51:55;;;;;;;15.80;14.30;;;;;;;1.41;75.27;97452.92;109540;1274;22736;-64
2022/01/20 02:54:24;;;;;;;17.40;15.70;;;;;;;1.43;75.34;97460.77;109670;1274;22244;-64
2022/01/20 02:56:59;;;;;;;17.20;15.60;;;;;;;1.44;75.47;97461.58;109609;1274;22536;-65
2022/01/20 02:59:34;;;;;;;16.90;15.20;;;;;;;1.42;75.36;97455.77;109512;1274;22556;-65
2022/01/20 03:02:08;;;;;;;18.50;16.60;;;;;;;1.39;75.72;97449.68;109516;1274;22453;-65
2022/01/20 03:04:39;;;;;;;16.20;14.50;;;;;;;1.33;76.17;97447.45;109527;1274;23139;-65
2022/01/20 03:07:20;;;;;;;16.30;14.60;;;;;;;1.27;76.60;97454.17;109666;1274;22556;-64
2022/01/20 03:09:48;;;;;;;18.20;16.40;;;;;;;1.21;77.08;97446.58;109650;1272;22347;-64
2022/01/20 03:12:16;;;;;;;18.40;16.70;;;;;;;1.16;77.44;97450.98;109512;1274;22498;-64
2022/01/20 03:14:44;;;;;;;18.00;16.30;;;;;;;1.10;77.92;97443.80;109666;1271;23292;-64
2022/01/20 03:17:15;;;;;;;15.90;14.30;;;;;;;1.04;78.12;97439.88;109601;1274;22641;-64
2022/01/20 03:19:42;;;;;;;17.80;16.00;;;;;;;1.02;78.23;97435.49;109677;1274;22441;-64
2022/01/20 03:22:10;;;;;;;16.60;15.00;;;;;;;1.02;78.12;97431.88;109449;1276;23226;-64
2022/01/20 03:24:39;;;;;;;16.80;15.20;;;;;;;1.00;78.23;97429.89;109675;1273;22492;-65
2022/01/20 03:27:08;;;;;;;16.40;14.90;;;;;;;0.98;78.35;97430.52;109496;1274;22420;-64
2022/01/20 03:29:37;;;;;;;17.80;16.00;;;;;;;1.00;78.03;97423.36;109483;1274;22402;-65
2022/01/20 03:32:05;;;;;;;18.00;16.30;;;;;;;1.04;77.98;97427.66;109583;1274;23053;-64
2022/01/20 03:34:33;;;;;;;17.10;15.40;;;;;;;1.06;78.11;97421.67;109679;1274;23600;-65
2022/01/20 03:37:05;;;;;;;17.40;15.80;;;;;;;1.08;77.98;97415.44;109604;1274;22497;-64
2022/01/20 03:39:42;;;;;;;16.90;15.30;;;;;;;1.10;77.69;97417.74;109588;1274;22563;-65
2022/01/20 03:42:10;;;;;;;15.80;14.30;;;;;;;1.13;77.61;97408.80;109588;1274;22460;-66
2022/01/20 03:44:39;;;;;;;15.90;14.40;;;;;;;1.17;77.37;97407.90;109580;1274;22431;-65
2022/01/20 03:47:09;;;;;;;17.80;16.10;;;;;;;1.21;77.43;97398.45;109582;1274;22582;-64
2022/01/20 03:49:50;;;;;;;17.20;15.50;;;;;;;1.23;77.29;97400.41;109697;1272;22401;-66
2022/01/20 03:52:19;;;;;;;15.70;14.20;;;;;;;1.23;77.37;97401.00;109578;1274;22495;-65
2022/01/20 03:54:47;;;;;;;16.20;13.90;;;;;;;1.25;77.13;97410.95;109645;1274;23760;-64
2022/01/20 03:57:42;;;;;;;16.90;15.20;;;;;;;1.29;77.15;97394.31;109430;1273;22763;-65
2022/01/20 04:00:11;;;;;;;17.70;15.90;;;;;;;1.31;76.95;97400.50;109584;1274;22397;-64
2022/01/20 04:02:42;;;;;;;16.60;14.90;;;;;;;1.31;77.01;97390.89;109687;1274;22564;-65
2022/01/20 04:05:25;;;;;;;16.20;14.50;;;;;;;1.33;77.19;97384.55;109603;1274;22352;-64
2022/01/20 04:08:06;;;;;;;18.90;16.80;;;;;;;1.34;77.13;97401.31;109549;1274;22654;-63
2022/01/20 04:10:34;;;;;;;18.50;16.80;;;;;;;1.33;77.25;97385.86;109656;1274;22400;-64
2022/01/20 04:13:02;;;;;;;20.20;18.10;;;;;;;1.30;77.27;97378.72;109591;1274;22543;-64
2022/01/20 04:15:38;;;;;;;17.20;15.50;;;;;;;1.27;77.56;97375.20;109593;1274;22428;-64
2022/01/20 04:18:08;;;;;;;16.00;14.40;;;;;;;1.26;78.08;97378.20;109655;1273;22956;-64
2022/01/20 04:20:37;;;;;;;18.50;16.80;;;;;;;1.23;78.36;97378.86;109616;1274;22554;-64
2022/01/20 04:23:05;;;;;;;17.60;15.80;;;;;;;1.19;78.25;97376.13;109595;1274;22522;-64
2022/01/20 04:25:34;;;;;;;19.40;17.60;;;;;;;1.16;78.53;97374.08;109547;1274;22550;-65
2022/01/20 04:28:02;;;;;;;18.20;16.10;;;;;;;1.14;78.98;97373.37;109597;1274;23170;-64
2022/01/20 04:30:30;;;;;;;16.70;14.30;;;;;;;1.15;79.06;97369.92;109606;1274;23069;-64
2022/01/20 04:32:59;;;;;;;17.40;15.70;;;;;;;1.13;79.16;97374.27;109606;1274;22475;-64
2022/01/20 04:35:27;;;;;;;18.40;16.60;;;;;;;1.09;79.29;97362.23;109598;1274;23222;-64
2022/01/20 04:37:57;;;;;;;17.30;15.70;;;;;;;1.07;79.11;97356.76;109672;1274;22435;-64
2022/01/20 04:40:25;;;;;;;17.80;16.20;;;;;;;1.06;79.74;97354.92;109587;1274;22251;-64
2022/01/20 04:42:54;;;;;;;19.80;17.90;;;;;;;1.08;79.32;97349.16;109582;1274;22567;-64
2022/01/20 04:45:30;;;;;;;18.10;16.30;;;;;;;1.08;79.43;97356.59;109600;1274;23248;-64
2022/01/20 04:48:14;;;;;;;15.60;14.00;;;;;;;1.05;79.88;97355.04;109604;1273;22784;-64
2022/01/20 04:59:07;;;;;;;18.10;16.20;;;;;;;1.03;80.71;97344.66;109652;1274;22500;-63
2022/01/20 05:01:36;;;;;;;17.40;15.70;;;;;;;1.02;80.33;97340.93;109603;1274;22609;-63
2022/01/20 05:04:30;;;;;;;17.50;15.90;;;;;;;1.03;80.58;97339.46;109291;1273;22470;-64
2022/01/20 05:07:07;;;;;;;18.00;16.00;;;;;;;1.03;80.65;97324.70;109604;1274;22488;-64
2022/01/20 05:09:36;;;;;;;18.20;16.50;;;;;;;1.02;80.65;97323.58;109674;1274;22438;-64
2022/01/20 05:12:10;;;;;;;17.50;15.80;;;;;;;1.02;80.61;97324.34;109535;1274;22470;-63
2022/01/20 05:14:39;;;;;;;16.40;14.70;;;;;;;1.05;80.62;97324.20;109620;1274;22559;-63
2022/01/20 05:17:09;;;;;;;17.50;16.00;;;;;;;1.07;80.80;97330.38;109609;1274;23212;-64
2022/01/20 05:19:37;;;;;;;18.70;17.00;;;;;;;1.09;80.57;97320.80;109667;1274;22517;-65
2022/01/20 05:22:06;;;;;;;17.20;15.50;;;;;;;1.11;80.24;97317.30;109603;1274;22459;-65
2022/01/20 05:24:43;;;;;;;17.40;15.60;;;;;;;1.12;80.34;97324.58;109604;1274;22563;-65
2022/01/20 05:27:12;;;;;;;17.60;15.90;;;;;;;1.16;80.23;97320.20;109612;1274;22473;-64
2022/01/20 05:29:40;;;;;;;16.80;15.20;;;;;;;1.19;79.77;97321.72;109677;1273;22384;-62
2022/01/20 05:32:09;;;;;;;18.40;16.60;;;;;;;1.21;79.85;97315.58;109637;1274;22473;-63
2022/01/20 05:34:37;;;;;;;16.10;14.40;;;;;;;1.22;79.86;97307.80;109606;1274;22506;-63
2022/01/20 05:37:06;;;;;;;16.50;14.90;;;;;;;1.24;79.89;97310.78;109608;1274;22407;-64
2022/01/20 05:39:34;;;;;;;17.20;15.60;;;;;;;1.22;80.21;97321.65;109602;1274;22705;-64
2022/01/20 05:42:02;;;;;;;18.40;16.70;;;;;;;1.17;80.32;97310.55;109681;1272;22549;-64
2022/01/20 05:44:44;;;;;;;17.60;15.70;;;;;;;1.12;80.31;97312.54;109586;1274;22473;-65
2022/01/20 05:47:14;;;;;;;17.30;15.50;;;;;;;1.13;80.19;97311.33;109661;1272;22557;-65
2022/01/20 05:50:12;;;;;;;16.10;14.70;;;;;;;1.15;80.14;97327.99;109445;1274;22580;-66
2022/01/20 05:52:41;;;;;;;18.20;16.40;;;;;;;1.18;79.93;97321.02;109613;1274;22446;-66
2022/01/20 05:55:14;;;;;;;16.70;15.10;;;;;;;1.19;79.91;97318.81;109528;1274;22511;-66
2022/01/20 05:57:43;;;;;;;17.20;15.60;;;;;;;1.23;79.76;97315.59;109578;1274;23327;-65
2022/01/20 06:00:16;;;;;;;15.90;14.40;;;;;;;1.27;79.66;97311.86;109597;1273;22418;-65
2022/01/20 06:05:33;;;;;;;16.80;15.10;;;;;;;1.28;79.57;97306.52;109583;1274;22422;-64
2022/01/20 06:08:01;;;;;;;16.80;15.10;;;;;;;1.28;79.80;97307.42;109657;1272;23185;-64
2022/01/20 06:10:31;;;;;;;15.10;13.60;;;;;;;1.31;79.52;97309.89;109603;1274;22566;-64
2022/01/20 06:13:09;;;;;;;16.60;15.00;;;;;;;1.34;79.39;97306.94;109500;1274;22448;-64
2022/01/20 06:15:37;;;;;;;18.20;16.30;;;;;;;1.36;79.34;97313.48;109607;1274;23300;-65
2022/01/20 06:18:06;;;;;;;17.30;15.60;;;;;;;1.36;79.24;97310.71;109658;1274;22806;-65
2022/01/20 06:20:37;;;;;;;15.70;14.20;;;;;;;1.37;79.30;97313.74;109601;1274;23346;-63
2022/01/20 06:23:07;;;;;;;16.00;14.40;;;;;;;1.38;79.41;97310.14;109617;1274;22552;-64
2022/01/20 06:25:36;;;;;;;16.10;14.50;;;;;;;1.42;79.32;97306.67;109590;1274;22365;-64
2022/01/20 06:28:05;;;;;;;17.90;16.20;;;;;;;1.40;79.17;97318.28;109672;1274;22418;-65
2022/01/20 06:30:33;;;;;;;17.30;15.70;;;;;;;1.40;79.21;97302.20;109496;1274;138399;-64
2022/01/20 06:33:03;;;;;;;17.70;16.00;;;;;;;1.39;79.42;97312.17;109612;1274;22318;-62
2022/01/20 06:35:37;;;;;;;17.70;16.10;;;;;;;1.40;79.32;97306.88;109626;1274;22413;-63
2022/01/20 06:38:07;;;;;;;22.10;19.90;;;;;;;1.42;78.98;97295.80;109663;1274;23257;-63
2022/01/20 06:40:36;;;;;;;24.10;21.90;;;;;;;1.39;79.26;97294.96;109613;1274;23667;-63
2022/01/20 06:43:05;;;;;;;20.10;18.10;;;;;;;1.36;79.29;97284.70;109612;1274;22562;-63
2022/01/20 06:45:33;;;;;;;18.00;16.20;;;;;;;1.36;79.28;97276.54;109677;1274;22488;-63
2022/01/20 06:48:07;;;;;;;17.90;16.30;;;;;;;1.38;79.46;97271.01;109597;1274;22517;-64
2022/01/20 06:50:40;;;;;;;17.80;16.10;;;;;;;1.39;79.35;97270.34;109599;1274;22382;-64
2022/01/20 06:53:09;;;;;;;17.00;15.40;;;;;;;1.36;79.27;97274.90;109494;1274;23220;-64
2022/01/20 06:55:37;;;;;;;17.80;15.90;;;;;;;1.36;79.34;97279.19;109692;1272;22282;-64
2022/01/20 06:58:06;;;;;;;18.30;16.40;;;;;;;1.38;79.19;97269.95;109672;1274;22464;-64
2022/01/20 07:00:34;;;;;;;19.50;17.60;;;;;;;1.38;79.50;97274.31;109686;1273;22414;-64
2022/01/20 07:03:02;;;;;;;18.60;16.80;;;;;;;1.38;79.21;97274.80;109598;1274;22476;-64
2022/01/20 07:05:30;;;;;;;18.70;16.90;;;;;;;1.39;79.23;97261.27;109592;1274;22437;-64
2022/01/20 07:07:58;;;;;;;18.00;16.30;;;;;;;1.41;79.34;97259.47;109598;1274;22559;-64
2022/01/20 07:10:26;;;;;;;18.20;16.40;;;;;;;1.44;79.21;97262.15;109571;1273;138021;-64
2022/01/20 07:12:55;;;;;;;19.40;17.70;;;;;;;1.43;79.29;97263.35;109464;1274;23535;-65
2022/01/20 07:15:24;;;;;;;18.70;16.80;;;;;;;1.41;79.33;97271.41;109651;1272;22660;-64
2022/01/20 07:17:52;;;;;;;18.70;16.90;;;;;;;1.41;79.40;97274.11;109676;1273;22426;-64
2022/01/20 07:20:23;;;;;;;19.80;17.90;;;;;;;1.43;79.61;97282.52;109672;1272;22468;-64
2022/01/20 07:23:21;;;;;;;19.70;17.80;;;;;;;1.40;79.82;97284.90;109620;1273;22495;-64
2022/01/20 07:25:59;;;;;;;18.30;16.60;;;;;;;1.38;79.67;97296.08;109671;1274;22387;-64
2022/01/20 07:28:27;;;;;;;16.70;15.20;;;;;;;1.34;79.80;97305.02;109664;1273;23324;-64
2022/01/20 07:30:55;;;;;;;24.00;21.80;;;;;;;1.27;80.41;97303.11;109679;1274;22447;-64
2022/01/20 07:33:25;;;;;;;24.70;22.40;;;;;;;1.18;80.53;97298.95;109667;1272;22474;-64
2022/01/20 07:35:57;;;;;;;22.90;20.60;;;;;;;1.04;80.54;97308.17;109677;1273;22436;-64
2022/01/20 07:38:25;;;;;;;22.50;20.40;;;;;;;0.90;80.49;97314.50;109661;1273;22556;-64
2022/01/20 07:40:54;;;;;;;21.00;19.10;;;;;;;0.82;80.75;97322.81;109672;1273;22567;-64
2022/01/20 07:43:22;;;;;;;28.90;26.10;;;;;;;0.74;81.67;97325.84;109666;1272;22350;-64
2022/01/20 07:45:55;;;;;;;22.50;20.40;;;;;;;0.66;81.64;97340.08;109664;1274;22473;-64
2022/01/20 07:48:28;;;;;;;21.70;19.60;;;;;;;0.54;81.76;97344.98;109662;1274;22449;-64
2022/01/20 07:51:07;;;;;;;23.50;21.20;;;;;;;0.46;81.63;97344.84;109761;1272;22404;-64
2022/01/20 07:53:37;;;;;;;24.60;22.20;;;;;;;0.43;81.81;97345.23;109751;1272;22515;-64
2022/01/20 07:56:05;;;;;;;21.70;19.70;;;;;;;0.40;82.12;97336.56;109664;1272;22499;-64
2022/01/20 07:58:35;;;;;;;25.60;23.30;;;;;;;0.36;82.54;97329.71;109674;1272;22472;-64
2022/01/20 08:01:05;;;;;;;22.80;20.60;;;;;;;0.32;84.39;97333.70;109656;1274;22384;-65
2022/01/20 08:03:37;;;;;;;22.60;20.40;;;;;;;0.34;83.67;97342.26;109692;1272;22424;-65
2022/01/20 08:06:09;;;;;;;19.90;18.00;;;;;;;0.36;83.59;97346.58;109641;1272;23103;-65
2022/01/20 08:08:40;;;;;;;20.80;19.00;;;;;;;0.36;84.12;97338.09;109670;1273;22406;-65
2022/01/20 08:11:43;;;;;;;18.50;16.80;;;;;;;0.36;83.85;97332.37;108883;1274;23071;-64
2022/01/20 08:14:31;;;;;;;17.40;15.60;;;;;;;0.35;83.80;97331.83;109692;1274;22525;-65
2022/01/20 08:17:00;;;;;;;18.10;16.30;;;;;;;0.35;83.79;97333.36;109685;1272;22461;-65
2022/01/20 08:19:30;;;;;;;23.70;21.40;;;;;;;0.37;83.80;97334.96;109658;1274;22439;-65
2022/01/20 08:21:59;;;;;;;24.60;22.50;;;;;;;0.38;84.12;97343.15;109569;1273;22551;-64
2022/01/20 08:24:49;;;;;;;23.90;21.50;;;;;;;0.36;84.22;97341.39;109678;1273;22517;-65
2022/01/20 08:27:19;;;;;;;20.90;18.90;;;;;;;0.35;84.13;97334.63;109669;1273;23107;-65
2022/01/20 08:29:48;;;;;;;25.50;23.10;;;;;;;0.38;84.08;97338.88;109656;1273;22454;-64
2022/01/20 08:32:17;;;;;;;33.20;30.10;;;;;;;0.41;84.84;97353.05;109651;1274;23378;-64
2022/01/20 08:34:55;;;;;;;25.50;22.90;;;;;;;0.40;85.60;97356.64;109675;1274;22555;-64
2022/01/20 08:37:49;;;;;;;23.40;21.30;;;;;;;0.36;85.57;97346.78;109772;1273;22843;-65
2022/01/20 08:40:22;;;;;;;25.00;22.70;;;;;;;0.33;85.83;97335.41;109583;1274;22542;-64
2022/01/20 08:42:54;;;;;;;22.90;20.70;;;;;;;0.33;85.40;97323.76;109676;1273;22632;-65
2022/01/20 08:45:25;;;;;;;22.40;20.30;;;;;;;0.34;85.57;97313.68;109654;1273;22451;-67
2022/01/20 08:47:56;;;;;;;25.70;23.20;;;;;;;0.37;85.81;97310.18;109689;1273;23273;-66
2022/01/20 08:50:34;;;;;;;25.90;23.20;;;;;;;0.41;85.72;97320.70;109662;1274;23273;-65
2022/01/20 08:53:03;;;;;;;27.90;24.90;;;;;;;0.46;85.42;97308.42;109669;1272;22454;-65
2022/01/20 08:55:31;;;;;;;26.10;23.30;;;;;;;0.51;85.27;97299.89;109665;1274;22537;-64
2022/01/20 08:58:07;;;;;;;27.70;24.70;;;;;;;0.57;85.58;97287.17;109671;1274;22445;-65
2022/01/20 09:00:36;;;;;;;28.30;25.60;;;;;;;0.60;85.83;97280.52;109653;1272;23263;-64
2022/01/20 09:03:10;;;;;;;31.10;22.20;;;;;;;0.64;85.63;97282.54;109666;1274;22452;-65
2022/01/20 09:05:39;;;;;;;22.60;19.90;;;;;;;0.72;85.52;97272.96;109670;1274;22434;-65
2022/01/20 09:08:18;;;;;;;42.20;20.30;;;;;;;0.81;85.66;97262.77;109663;1272;23177;-65
2022/01/20 09:10:55;;;;;;;24.60;20.60;;;;;;;0.90;85.54;97255.14;109615;1274;22564;-63
2022/01/20 09:16:14;;;;;;;20.50;18.30;;;;;;;1.05;85.57;97261.58;109673;1274;23158;-65
2022/01/20 09:18:54;;;;;;;21.30;19.10;;;;;;;1.11;85.58;97261.22;109688;1272;22465;-65
2022/01/20 09:21:23;;;;;;;25.10;21.20;;;;;;;1.19;85.36;97248.54;109676;1274;22472;-65
2022/01/20 09:23:57;;;;;;;26.50;23.20;;;;;;;1.28;85.21;97243.98;109776;1273;22547;-65
2022/01/20 09:26:32;;;;;;;23.90;21.40;;;;;;;1.35;84.92;97232.84;109695;1272;22686;-65
2022/01/20 09:29:05;;;;;;;23.10;20.80;;;;;;;1.40;84.92;97241.30;109678;1274;22420;-65
2022/01/20 09:31:38;;;;;;;25.50;22.90;;;;;;;1.47;84.49;97231.46;109543;1273;23563;-65
2022/01/20 09:34:10;;;;;;;25.70;23.30;;;;;;;1.53;84.28;97226.93;109556;1274;23226;-65
2022/01/20 09:36:54;;;;;;;29.50;26.70;;;;;;;1.61;84.09;97224.27;109667;1272;22427;-65
2022/01/20 09:39:45;;;;;;;29.30;26.20;;;;;;;1.73;84.30;97227.21;109646;1273;22529;-66
2022/01/20 09:42:34;;;;;;;25.80;23.30;;;;;;;1.85;84.01;97226.05;109629;1273;23671;-66
2022/01/20 09:45:24;;;;;;;27.40;24.00;;;;;;;1.99;83.81;97226.21;109573;1274;23104;-67
2022/01/20 09:48:39;;;;;;;27.20;24.40;;;;;;;2.20;83.96;97215.70;109664;1274;22393;-66
2022/01/20 09:51:42;;;;;;;23.30;20.90;;;;;;;2.33;83.31;97211.88;109502;1274;22459;-66
2022/01/20 09:54:22;;;;;;;20.80;18.70;;;;;;;2.34;82.57;97212.45;109598;1273;22574;-66
2022/01/20 09:57:05;;;;;;;19.90;17.00;;;;;;;2.25;81.65;97224.66;109550;1274;23131;-66
2022/01/20 09:59:37;;;;;;;27.60;24.70;;;;;;;2.18;82.23;97202.69;109661;1274;23142;-66
2022/01/20 10:02:18;;;;;;;26.30;23.60;;;;;;;2.18;82.84;97190.25;109655;1274;22458;-66
2022/01/20 10:04:59;;;;;;;18.30;16.40;;;;;;;2.19;82.60;97194.08;109531;1274;23423;-66
2022/01/20 10:07:35;;;;;;;16.40;14.20;;;;;;;2.21;82.51;97185.05;109568;1274;22453;-69
2022/01/20 10:10:15;;;;;;;;;;;;;;;2.19;81.54;97188.66;109657;1274;23325;-66
2022/01/20 10:13:31;;;;;;;19.00;15.10;;;;;;;2.12;81.19;97175.45;108864;1274;23439;-66
2022/01/20 10:16:17;;;;;;;19.90;17.60;;;;;;;2.08;81.31;97171.84;109543;1274;22558;-69
2022/01/20 10:18:59;;;;;;;20.10;16.90;;;;;;;2.09;81.67;97166.94;109523;1274;22477;-66
2022/01/20 10:21:39;;;;;;;23.60;21.00;;;;;;;2.09;81.74;97161.47;109570;1274;22602;-65
2022/01/20 10:24:35;;;;;;;21.30;19.10;;;;;;;2.04;81.60;97166.08;109498;1274;22398;-66
2022/01/20 10:27:16;;;;;;;22.70;20.30;;;;;;;2.02;81.70;97154.11;109658;1274;22462;-66
2022/01/20 10:30:21;;;;;;;24.50;22.10;;;;;;;1.99;81.22;97154.42;109531;1274;23171;-65
2022/01/20 10:32:59;;;;;;;28.60;25.90;;;;;;;1.94;81.32;97140.70;109531;1274;22457;-65
2022/01/20 10:35:38;;;;;;;23.10;20.40;;;;;;;1.88;81.36;97135.69;109665;1274;22421;-65
2022/01/20 10:38:19;;;;;;;19.80;17.30;;;;;;;1.82;80.91;97126.27;109544;1274;22526;-65
2022/01/20 10:40:59;;;;;;;24.30;21.70;;;;;;;1.79;80.85;97119.04;109669;1274;23093;-65
2022/01/20 10:43:39;;;;;;;28.60;25.60;;;;;;;1.78;80.88;97116.73;109566;1274;22511;-64
2022/01/20 10:46:46;;;;;;;24.30;21.10;;;;;;;1.75;80.89;97101.96;109666;1274;23126;-64
2022/01/20 10:49:19;;;;;;;23.30;20.90;;;;;;;1.71;81.10;97094.41;109543;1274;22466;-64
2022/01/20 10:52:08;;;;;;;24.60;21.90;;;;;;;1.69;80.47;97086.44;109550;1274;22480;-64
2022/01/20 10:54:46;;;;;;;22.80;18.40;;;;;;;1.66;79.91;97090.79;109530;1274;23147;-65
2022/01/20 10:57:43;;;;;;;18.90;16.60;;;;;;;1.65;79.56;97086.00;109500;1274;23218;-65
2022/01/20 11:00:19;;;;;;;19.80;14.30;;;;;;;1.60;77.52;97083.48;109573;1274;22438;-65
2022/01/20 11:02:57;;;;;;;24.30;16.80;;;;;;;1.57;78.39;97076.21;109444;1273;138123;-65
2022/01/20 11:05:26;;;;;;;16.80;12.30;;;;;;;1.54;77.54;97090.53;109580;1274;22527;-65
2022/01/20 11:07:59;;;;;;;17.10;12.30;;;;;;;1.47;76.93;97118.39;109574;1274;22474;-64
2022/01/20 11:10:32;;;;;;;15.30;10.10;;;;;;;1.31;77.60;97137.95;109660;1274;22503;-64
2022/01/20 11:13:30;;;;;;;19.10;10.20;;;;;;;0.97;79.94;97191.64;109418;1274;22653;-65
2022/01/20 11:16:05;;;;;;;11.20;7.40;;;;;;;0.26;85.64;97243.37;109552;1274;22580;-62
2022/01/20 11:18:33;;;;;;;8.90;6.00;;;;;;;-0.18;86.04;97212.08;109587;1274;22546;-63
2022/01/20 11:21:06;;;;;;;7.10;4.90;;;;;;;-0.70;85.58;97236.63;109620;1274;22529;-63
2022/01/20 11:23:40;;;;;;;9.90;5.40;;;;;;;-1.16;86.10;97246.50;109558;1274;22442;-62
2022/01/20 11:26:35;;;;;;;6.70;5.00;;;;;;;-1.49;86.18;97225.33;109435;1274;22433;-62
2022/01/20 11:29:47;;;;;;;7.40;5.40;;;;;;;-1.73;85.87;97223.30;109305;1274;23249;-62
2022/01/20 11:32:39;;;;;;;7.40;5.90;;;;;;;-1.91;85.92;97231.12;109529;1274;138479;-63
2022/01/20 11:35:16;;;;;;;8.70;6.40;;;;;;;-2.02;85.87;97212.24;109449;1276;22800;-61
2022/01/20 11:37:56;;;;;;;9.80;7.30;;;;;;;-2.08;85.68;97207.70;109659;1274;22697;-63
2022/01/20 11:40:25;;;;;;;8.70;6.30;;;;;;;-2.10;85.58;97206.92;109630;1274;22433;-64
2022/01/20 11:43:08;;;;;;;11.10;6.70;;;;;;;-2.13;85.71;97214.16;109638;1272;22583;-64
2022/01/20 11:45:39;;;;;;;12.20;8.40;;;;;;;-2.19;85.49;97215.42;109525;1274;23073;-61
2022/01/20 11:48:48;;;;;;;13.10;8.20;;;;;;;-2.19;85.30;97195.14;109647;1274;22278;-62
2022/01/20 11:51:19;;;;;;;12.30;9.20;;;;;;;-2.19;85.85;97191.66;108908;1281;23352;-62
2022/01/20 11:53:55;;;;;;;14.40;11.60;;;;;;;-2.16;85.65;97206.45;108910;1281;22726;-62
2022/01/20 11:56:36;;;;;;;13.70;12.10;;;;;;;-2.14;85.34;97192.55;108891;1281;23033;-62
2022/01/20 11:59:05;;;;;;;13.80;11.00;;;;;;;-2.09;85.13;97211.81;108927;1281;23130;-62
2022/01/20 12:01:55;;;;;;;14.30;12.00;;;;;;;-2.05;84.49;97224.45;108785;1281;23303;-63
2022/01/20 12:04:40;;;;;;;14.10;10.90;;;;;;;-2.03;84.45;97212.65;108791;1281;22453;-63
2022/01/20 12:07:32;;;;;;;15.40;11.60;;;;;;;-1.99;84.32;97222.30;108902;1281;22291;-63
2022/01/20 12:10:16;;;;;;;16.50;13.40;;;;;;;-1.95;83.75;97212.23;108797;1281;138589;-63
2022/01/20 12:12:49;;;;;;;17.70;12.30;;;;;;;-1.94;83.74;97206.66;109087;1280;22498;-62
2022/01/20 12:15:25;;;;;;;14.70;13.30;;;;;;;-1.93;83.50;97215.02;108876;1280;23372;-62
2022/01/20 12:17:58;;;;;;;15.40;12.50;;;;;;;-1.89;83.53;97207.55;109100;1280;23256;-62
2022/01/20 12:20:30;;;;;;;16.30;12.40;;;;;;;-1.86;83.30;97219.69;109106;1280;22536;-62
2022/01/20 12:22:58;;;;;;;13.40;9.50;;;;;;;-1.84;83.41;97227.75;109143;1280;22413;-67
2022/01/20 12:25:28;;;;;;;11.20;9.00;;;;;;;-1.84;83.42;97224.76;109113;1280;22488;-63
2022/01/20 12:28:17;;;;;;;11.20;8.90;;;;;;;-1.80;83.44;97226.13;109374;1274;22652;-63
2022/01/20 12:30:48;;;;;;;11.90;9.60;;;;;;;-1.79;83.46;97231.34;109642;1274;23329;-63
2022/01/20 12:33:22;;;;;;;12.20;9.50;;;;;;;-1.81;83.85;97233.73;109573;1274;23072;-62
2022/01/20 12:35:54;;;;;;;10.40;8.60;;;;;;;-1.89;84.78;97242.14;109555;1274;22434;-63
2022/01/20 12:38:32;;;;;;;11.50;8.60;;;;;;;-1.98;83.58;97234.15;109661;1274;22446;-63
2022/01/20 12:41:22;;;;;;;11.30;7.20;;;;;;;-2.05;81.08;97233.54;109670;1274;22413;-62
2022/01/20 12:44:04;;;;;;;9.30;6.70;;;;;;;-2.10;79.20;97218.55;109685;1273;23053;-62
2022/01/20 12:46:41;;;;;;;9.60;7.10;;;;;;;-2.13;79.64;97219.54;109545;1274;137714;-62
2022/01/20 12:49:19;;;;;;;9.10;6.10;;;;;;;-2.15;79.61;97231.75;109653;1274;22423;-62
2022/01/20 12:51:54;;;;;;;11.60;8.60;;;;;;;-2.16;76.08;97234.03;109672;1273;22608;-62
2022/01/20 12:54:34;;;;;;;14.40;9.80;;;;;;;-2.19;74.69;97259.70;109585;1274;22425;-62
2022/01/20 12:57:11;;;;;;;11.80;8.10;;;;;;;-2.21;74.73;97244.87;109685;1273;22467;-61
2022/01/20 12:59:43;;;;;;;14.00;9.40;;;;;;;-2.25;73.31;97247.90;109677;1274;22503;-62